Time;durP1;ratioP1;P1;durP2;ratioP2;P2;SDS_P1;SDS_P2;PMS_P1;PMS_P2;Temp;Humidity;BMP_temperature;BMP_pressure;BME280_temperature;BME280_humidity;BME280_pressure;Samples;Min_cycle;Max_cycle;Signal;HPM_P1;HPM_P2
2023/06/22 00:01:58;;;;;;;4.30;3.90;;;28.60;46.10;29.10;100967.00;;;;5031681;28;20203;-57
2023/06/22 00:04:25;;;;;;;4.55;4.07;;;28.60;46.20;29.10;100965.00;;;;5033768;28;20167;-56
2023/06/22 00:06:50;;;;;;;4.13;3.83;;;28.60;46.20;29.10;100970.00;;;;5034398;28;20172;-57
2023/06/22 00:09:16;;;;;;;4.18;3.88;;;28.60;46.20;29.10;100966.00;;;;5046756;28;20175;-57
2023/06/22 00:11:42;;;;;;;4.15;3.78;;;28.60;46.10;29.10;100966.00;;;;5038851;28;20180;-56
2023/06/22 00:14:08;;;;;;;3.83;3.53;;;28.60;46.20;29.00;100963.00;;;;5045080;28;20547;-56
2023/06/22 00:16:33;;;;;;;4.50;4.10;;;28.60;46.00;29.00;100957.00;;;;5029766;28;20258;-56
2023/06/22 00:19:03;;;;;;;4.40;4.00;;;28.50;45.90;29.00;100959.00;;;;5029810;28;20226;-56
2023/06/22 00:21:29;;;;;;;4.57;4.18;;;28.50;46.10;29.00;100958.00;;;;5029800;28;20270;-57
2023/06/22 00:23:55;;;;;;;4.00;3.70;;;28.50;46.00;28.90;100967.00;;;;5029443;28;20719;-57
2023/06/22 00:26:21;;;;;;;4.97;3.90;;;28.50;46.00;28.90;100946.00;;;;5028823;28;20163;-56
2023/06/22 00:28:47;;;;;;;4.10;3.80;;;28.50;46.10;28.90;100958.00;;;;5028525;28;20278;-57
2023/06/22 00:31:13;;;;;;;4.10;3.70;;;28.40;46.00;28.90;100960.00;;;;5029371;28;20186;-56
2023/06/22 00:33:39;;;;;;;4.22;3.80;;;28.40;46.00;28.90;100962.00;;;;5012188;28;20170;-55
2023/06/22 00:36:06;;;;;;;4.72;3.95;;;28.40;46.00;28.80;100963.00;;;;5028876;28;20221;-57
2023/06/22 00:38:31;;;;;;;3.80;3.50;;;28.40;46.00;28.80;100964.00;;;;5029670;28;20245;-56
2023/06/22 00:40:57;;;;;;;3.97;3.67;;;28.40;45.90;28.80;100978.00;;;;5029500;28;20175;-56
2023/06/22 00:43:24;;;;;;;3.92;3.63;;;28.40;45.90;28.80;100969.00;;;;5029638;28;20349;-56
2023/06/22 00:45:50;;;;;;;4.18;3.88;;;28.40;45.80;28.80;100963.00;;;;5028440;28;20242;-56
2023/06/22 00:48:15;;;;;;;3.85;3.55;;;28.30;45.70;28.80;100959.00;;;;5028343;28;20194;-57
2023/06/22 00:50:41;;;;;;;3.65;3.35;;;28.40;45.70;28.80;100962.00;;;;5028895;28;20186;-56
2023/06/22 00:53:08;;;;;;;4.45;3.53;;;28.30;45.70;28.70;100954.00;;;;5027779;28;20336;-56
2023/06/22 00:55:37;;;;;;;4.18;3.78;;;28.30;45.70;28.70;100957.00;;;;5027971;28;20171;-57
2023/06/22 00:58:07;;;;;;;3.72;3.42;;;28.30;45.60;28.70;100959.00;;;;5029031;28;20685;-57
2023/06/22 01:00:33;;;;;;;3.92;3.63;;;28.30;45.70;28.70;100961.00;;;;5027642;28;20174;-58
2023/06/22 01:02:59;;;;;;;3.90;3.60;;;28.20;45.70;28.70;100957.00;;;;5031086;28;20206;-57
2023/06/22 01:05:24;;;;;;;3.53;3.22;;;28.20;45.70;28.70;100956.00;;;;5041425;28;20186;-56
2023/06/22 01:08:12;;;;;;;3.78;3.47;;;28.20;45.50;28.70;100962.00;;;;5035577;28;20212;-57
2023/06/22 01:11:07;;;;;;;4.00;3.58;;;28.20;45.60;28.60;100953.00;;;;5038768;28;20556;-57
2023/06/22 01:14:02;;;;;;;3.80;3.50;;;28.20;45.50;28.60;100953.00;;;;5015370;28;20178;-57
2023/06/22 01:16:30;;;;;;;3.88;3.50;;;28.20;45.50;28.60;100952.00;;;;5027291;28;20250;-57
2023/06/22 01:19:00;;;;;;;3.80;3.50;;;28.20;45.60;28.60;100954.00;;;;5027514;28;20248;-56
2023/06/22 01:21:28;;;;;;;3.53;3.33;;;28.20;45.60;28.50;100954.00;;;;5027154;28;20206;-57
2023/06/22 01:24:19;;;;;;;3.50;3.20;;;28.20;45.60;28.50;100940.00;;;;5027457;28;20169;-57
2023/06/22 01:27:09;;;;;;;3.72;3.42;;;28.10;45.70;28.50;100951.00;;;;5026704;28;20206;-57
2023/06/22 01:29:35;;;;;;;3.95;3.60;;;28.10;46.00;28.50;100954.00;;;;4996032;28;20183;-56
2023/06/22 01:32:01;;;;;;;3.95;3.65;;;28.10;46.00;28.50;100935.00;;;;4994704;28;20182;-55
2023/06/22 01:34:27;;;;;;;4.00;3.60;;;28.10;46.00;28.50;100936.00;;;;5027185;28;20233;-57
2023/06/22 01:36:53;;;;;;;3.70;3.40;;;28.10;46.10;28.50;100939.00;;;;5027135;28;20175;-55
2023/06/22 01:39:18;;;;;;;3.83;3.10;;;28.10;46.10;28.50;100946.00;;;;4994692;28;20704;-56
2023/06/22 01:41:44;;;;;;;3.50;3.17;;;28.10;46.30;28.50;100937.00;;;;5027174;28;20198;-55
2023/06/22 01:44:10;;;;;;;4.65;3.50;;;28.10;46.40;28.50;100893.00;;;;5043757;28;20242;-56
2023/06/22 01:46:36;;;;;;;5.82;3.50;;;28.10;46.60;28.40;100929.00;;;;5026495;28;20664;-56
2023/06/22 01:49:02;;;;;;;3.80;3.50;;;28.00;46.60;28.50;100925.00;;;;5011098;28;20185;-57
2023/06/22 01:51:28;;;;;;;4.38;3.40;;;28.10;46.60;28.40;100926.00;;;;5027159;28;20174;-57
2023/06/22 01:53:54;;;;;;;3.63;3.28;;;28.10;46.40;28.40;100935.00;;;;5028790;28;20197;-56
2023/06/22 01:56:20;;;;;;;3.70;3.40;;;28.00;46.40;28.40;100924.00;;;;5034444;28;20166;-55
2023/06/22 01:59:10;;;;;;;3.75;3.45;;;28.00;46.60;28.40;100924.00;;;;5041337;28;20201;-56
2023/06/22 02:01:48;;;;;;;3.20;3.00;;;28.00;46.80;28.40;100923.00;;;;5019207;28;20178;-56
2023/06/22 02:04:23;;;;;;;3.63;3.33;;;28.00;46.70;28.40;100918.00;;;;5032755;28;20253;-55
2023/06/22 02:06:49;;;;;;;4.00;3.60;;;28.00;46.70;28.40;100916.00;;;;5016585;28;20174;-56
2023/06/22 02:09:17;;;;;;;3.80;3.50;;;28.00;46.80;28.40;100925.00;;;;5016585;28;20220;-57
2023/06/22 02:11:44;;;;;;;4.07;3.67;;;28.00;46.60;28.30;100921.00;;;;5042626;28;20178;-57
2023/06/22 02:14:10;;;;;;;3.67;3.38;;;28.00;46.60;28.30;100913.00;;;;5027174;28;20266;-57
2023/06/22 02:16:35;;;;;;;3.75;3.45;;;28.00;46.60;28.30;100914.00;;;;5030311;28;20263;-57
2023/06/22 02:19:06;;;;;;;3.90;3.60;;;28.00;46.60;28.30;100912.00;;;;5032238;28;20199;-63
2023/06/22 02:21:31;;;;;;;3.83;3.53;;;28.00;46.40;28.30;100909.00;;;;5031880;28;20190;-56
2023/06/22 02:23:58;;;;;;;4.20;3.80;;;28.00;46.50;28.30;100906.00;;;;5035287;28;20660;-56
2023/06/22 02:26:25;;;;;;;4.07;3.78;;;28.00;46.60;28.30;100910.00;;;;5036867;28;20175;-56
2023/06/22 02:28:51;;;;;;;4.10;3.70;;;27.90;46.60;28.20;100915.00;;;;5039763;28;20187;-56
2023/06/22 02:31:16;;;;;;;4.07;3.67;;;27.90;46.70;28.20;100916.00;;;;5035335;28;20201;-55
2023/06/22 02:33:43;;;;;;;4.20;3.80;;;27.90;46.40;28.20;100906.00;;;;5032485;28;20175;-55
2023/06/22 02:36:09;;;;;;;4.20;3.90;;;28.00;46.40;28.20;100914.00;;;;5031416;28;20693;-56
2023/06/22 02:38:37;;;;;;;4.03;3.72;;;27.90;46.10;28.20;100907.00;;;;5031921;28;20195;-57
2023/06/22 02:41:03;;;;;;;4.07;3.78;;;27.90;46.30;28.10;100902.00;;;;5032247;28;20266;-56
2023/06/22 02:43:29;;;;;;;4.30;3.90;;;27.90;46.30;28.10;100900.00;;;;5031918;28;20202;-56
2023/06/22 02:45:55;;;;;;;4.03;3.72;;;27.90;46.50;28.10;100905.00;;;;5031268;28;20171;-55
2023/06/22 02:48:21;;;;;;;3.78;3.47;;;27.80;46.60;28.10;100902.00;;;;5018055;28;20381;-55
2023/06/22 02:50:47;;;;;;;4.13;3.83;;;27.80;46.70;28.10;100909.00;;;;5011721;28;20294;-55
2023/06/22 02:53:12;;;;;;;4.75;4.25;;;27.70;46.80;28.10;100886.00;;;;5011606;28;20174;-57
2023/06/22 02:55:39;;;;;;;4.32;3.92;;;27.80;46.90;28.10;100886.00;;;;5009212;28;20673;-56
2023/06/22 02:58:05;;;;;;;4.80;4.40;;;27.80;46.90;28.00;100888.00;;;;5011590;28;20658;-55
2023/06/22 03:00:32;;;;;;;4.57;4.18;;;27.80;46.90;28.00;100881.00;;;;5011269;28;20229;-56
2023/06/22 03:02:58;;;;;;;4.22;3.83;;;27.80;46.90;28.00;100877.00;;;;5012359;28;20227;-56
2023/06/22 03:05:24;;;;;;;4.60;4.00;;;27.70;46.90;28.00;100879.00;;;;5011614;28;20646;-56
2023/06/22 03:07:50;;;;;;;4.60;4.20;;;27.70;47.00;28.00;100867.00;;;;5012145;28;20283;-56
2023/06/22 03:10:15;;;;;;;4.85;4.18;;;27.70;47.00;28.00;100868.00;;;;5012350;28;20172;-56
2023/06/22 03:12:42;;;;;;;4.80;4.30;;;27.70;47.10;28.00;100868.00;;;;5011444;28;20178;-55
2023/06/22 03:15:10;;;;;;;4.80;4.35;;;27.70;47.10;28.00;100863.00;;;;5011568;28;20820;-56
2023/06/22 03:17:36;;;;;;;4.38;4.07;;;27.70;47.10;27.90;100865.00;;;;5010870;28;20195;-55
2023/06/22 03:20:10;;;;;;;4.60;4.20;;;27.60;47.00;27.90;100854.00;;;;5011220;28;20196;-55
2023/06/22 03:22:39;;;;;;;4.38;4.00;;;27.60;47.00;27.90;100861.00;;;;5012131;28;20199;-55
2023/06/22 03:25:10;;;;;;;4.20;3.90;;;27.60;47.10;27.90;100861.00;;;;5011427;28;20171;-56
2023/06/22 03:27:37;;;;;;;5.25;4.28;;;27.60;47.20;27.90;100862.00;;;;5012881;28;20279;-47
2023/06/22 03:30:03;;;;;;;4.57;4.18;;;27.60;47.60;27.90;100857.00;;;;5014024;28;20227;-49
2023/06/22 03:32:29;;;;;;;5.03;4.20;;;27.60;47.50;27.90;100861.00;;;;5011919;28;20549;-50
2023/06/22 03:34:58;;;;;;;4.82;4.43;;;27.60;47.60;27.90;100854.00;;;;5015517;28;20194;-51
2023/06/22 03:37:25;;;;;;;4.28;3.88;;;27.50;47.50;27.90;100862.00;;;;5020263;28;20206;-50
2023/06/22 03:39:51;;;;;;;4.93;4.35;;;27.50;47.60;27.80;100859.00;;;;5032370;28;20175;-51
2023/06/22 03:42:17;;;;;;;4.60;4.20;;;27.50;47.90;27.80;100862.00;;;;5031113;28;20194;-49
2023/06/22 03:44:43;;;;;;;4.65;4.25;;;27.50;47.80;27.80;100851.00;;;;5034306;28;20167;-49
2023/06/22 03:47:09;;;;;;;4.28;3.97;;;27.50;47.90;27.80;100844.00;;;;5033570;28;20195;-48
2023/06/22 03:49:35;;;;;;;4.45;3.95;;;27.50;47.80;27.80;100844.00;;;;5032372;28;20182;-50
2023/06/22 03:52:04;;;;;;;4.50;4.10;;;27.40;47.70;27.80;100849.00;;;;5033624;28;20549;-49
2023/06/22 03:54:30;;;;;;;4.60;4.20;;;27.40;47.70;27.70;100855.00;;;;5030792;28;20186;-49
2023/06/22 03:56:57;;;;;;;4.38;3.97;;;27.40;47.70;27.70;100849.00;;;;5030224;28;20179;-49
2023/06/22 03:59:22;;;;;;;4.38;3.97;;;27.40;47.70;27.70;100849.00;;;;5030019;28;20256;-53
2023/06/22 04:01:48;;;;;;;4.57;4.18;;;27.40;47.80;27.70;100839.00;;;;5053033;28;20179;-52
2023/06/22 04:04:14;;;;;;;4.85;4.15;;;27.30;47.50;27.70;100848.00;;;;5042774;28;20205;-49
2023/06/22 04:06:40;;;;;;;4.18;3.78;;;27.40;47.60;27.60;100845.00;;;;5031390;28;20222;-49
2023/06/22 04:09:08;;;;;;;4.22;3.83;;;27.40;47.60;27.70;100852.00;;;;5031124;28;20207;-49
2023/06/22 04:11:34;;;;;;;4.15;3.85;;;27.40;47.70;27.60;100844.00;;;;5030516;28;20225;-49
2023/06/22 04:14:00;;;;;;;4.13;3.83;;;27.30;47.60;27.60;100837.00;;;;4996706;28;20171;-50
2023/06/22 04:16:26;;;;;;;4.38;3.97;;;27.30;47.70;27.60;100836.00;;;;5025543;28;20181;-51
2023/06/22 04:18:52;;;;;;;5.45;3.97;;;27.30;47.60;27.60;100847.00;;;;5028461;28;20907;-50
2023/06/22 04:21:19;;;;;;;4.68;4.28;;;27.30;47.70;27.60;100835.00;;;;5015613;28;20262;-49
2023/06/22 04:23:48;;;;;;;4.40;3.90;;;27.30;47.70;27.60;100850.00;;;;5014429;28;20191;-49
2023/06/22 04:26:14;;;;;;;4.65;4.25;;;27.30;47.80;27.60;100857.00;;;;5012611;28;20171;-50
2023/06/22 04:28:40;;;;;;;4.35;4.00;;;27.30;47.90;27.60;100857.00;;;;5015074;28;20225;-50
2023/06/22 04:31:06;;;;;;;4.18;3.88;;;27.30;47.90;27.60;100855.00;;;;5022341;28;20163;-49
2023/06/22 04:33:33;;;;;;;4.30;3.90;;;27.30;48.00;27.60;100839.00;;;;5017641;28;20175;-49
2023/06/22 04:36:03;;;;;;;4.45;3.90;;;27.30;48.00;27.60;100851.00;;;;5012601;28;20205;-49
2023/06/22 04:38:33;;;;;;;5.90;4.20;;;27.30;48.00;27.60;100850.00;;;;5028198;28;20226;-49
2023/06/22 04:41:01;;;;;;;4.30;3.90;;;27.30;48.10;27.50;100851.00;;;;5029649;28;20163;-48
2023/06/22 04:43:30;;;;;;;4.53;4.13;;;27.20;48.00;27.50;100844.00;;;;5014807;28;20277;-48
2023/06/22 04:46:03;;;;;;;4.47;4.00;;;27.20;48.10;27.50;100855.00;;;;5029992;28;20379;-49
2023/06/22 04:48:33;;;;;;;4.40;4.07;;;27.20;48.20;27.50;100854.00;;;;5028141;28;20201;-49
2023/06/22 04:51:03;;;;;;;4.38;3.97;;;27.20;48.20;27.50;100855.00;;;;5013220;28;20197;-49
2023/06/22 04:53:30;;;;;;;4.60;4.20;;;27.20;48.30;27.50;100865.00;;;;5028362;28;20171;-49
2023/06/22 04:56:00;;;;;;;4.47;4.07;;;27.20;48.50;27.50;100863.00;;;;5013119;28;20170;-49
2023/06/22 04:58:32;;;;;;;4.65;4.20;;;27.20;48.90;27.50;100857.00;;;;5033879;28;20537;-50
2023/06/22 05:00:58;;;;;;;4.70;4.30;;;27.20;49.60;27.50;100863.00;;;;5003650;28;20178;-49
2023/06/22 05:03:27;;;;;;;4.15;3.80;;;27.20;49.00;27.50;100848.00;;;;4996547;28;20827;-50
2023/06/22 05:05:53;;;;;;;4.80;4.20;;;27.20;49.00;27.50;100856.00;;;;5010335;28;20186;-51
2023/06/22 05:08:19;;;;;;;5.25;4.13;;;27.10;49.20;27.50;100849.00;;;;5010025;28;20329;-50
2023/06/22 05:10:45;;;;;;;4.93;4.20;;;27.20;49.50;27.50;100856.00;;;;5011334;28;20641;-49
2023/06/22 05:13:11;;;;;;;4.85;4.43;;;27.20;49.70;27.50;100857.00;;;;5028993;28;20179;-50
2023/06/22 05:15:39;;;;;;;4.95;4.45;;;27.20;49.80;27.50;100862.00;;;;5027014;28;20171;-50
2023/06/22 05:18:06;;;;;;;5.13;4.30;;;27.10;49.70;27.50;100846.00;;;;4997148;28;20191;-48
2023/06/22 05:20:34;;;;;;;4.82;4.43;;;27.10;49.80;27.40;100829.00;;;;4996886;28;20225;-50
2023/06/22 05:23:00;;;;;;;5.05;4.32;;;27.10;49.90;27.40;100853.00;;;;4996477;28;20804;-50
2023/06/22 05:25:26;;;;;;;4.55;4.22;;;27.10;50.10;27.40;100851.00;;;;4978682;28;20281;-48
2023/06/22 05:27:52;;;;;;;6.70;4.32;;;27.10;50.20;27.50;100852.00;;;;4996245;28;20194;-48
2023/06/22 05:30:18;;;;;;;4.80;4.40;;;27.10;50.50;27.50;100852.00;;;;4994188;28;20205;-48
2023/06/22 05:32:44;;;;;;;4.72;4.22;;;27.10;50.60;27.40;100838.00;;;;4995828;28;20178;-48
2023/06/22 05:35:09;;;;;;;4.80;4.40;;;27.10;50.80;27.40;100830.00;;;;5010861;28;20601;-48
2023/06/22 05:37:35;;;;;;;4.72;4.32;;;27.10;50.80;27.50;100826.00;;;;4995641;28;20206;-49
2023/06/22 05:40:01;;;;;;;5.18;4.68;;;27.10;51.20;27.50;100854.00;;;;4995717;28;20179;-49
2023/06/22 05:42:27;;;;;;;5.03;4.63;;;27.10;51.20;27.50;100849.00;;;;5012044;28;20219;-52
2023/06/22 05:44:53;;;;;;;5.38;4.97;;;27.10;51.20;27.50;100846.00;;;;4994369;28;20554;-51
2023/06/22 05:47:19;;;;;;;5.22;4.82;;;27.10;51.40;27.50;100851.00;;;;5011938;28;20213;-49
2023/06/22 05:49:45;;;;;;;5.43;5.03;;;27.10;51.50;27.40;100854.00;;;;5028430;28;20170;-49
2023/06/22 05:52:11;;;;;;;5.05;4.65;;;27.10;51.60;27.40;100851.00;;;;5012134;28;20178;-48
2023/06/22 05:54:38;;;;;;;4.95;4.55;;;27.10;51.70;27.40;100857.00;;;;4996734;28;20175;-49
2023/06/22 05:57:04;;;;;;;5.13;4.70;;;27.10;51.90;27.40;100851.00;;;;5028621;28;20186;-49
2023/06/22 05:59:30;;;;;;;5.43;4.88;;;27.10;51.90;27.40;100847.00;;;;5030376;28;20591;-49
2023/06/22 06:01:56;;;;;;;5.25;4.85;;;27.10;52.00;27.40;100846.00;;;;5010513;28;20281;-49
2023/06/22 06:04:22;;;;;;;5.28;4.88;;;27.10;52.00;27.40;100861.00;;;;5012018;28;20553;-49
2023/06/22 06:06:47;;;;;;;5.47;4.97;;;27.10;52.10;27.40;100863.00;;;;4995168;28;20163;-49
2023/06/22 06:09:14;;;;;;;5.10;4.70;;;27.10;52.40;27.40;100873.00;;;;5028355;28;20168;-50
2023/06/22 06:11:40;;;;;;;5.40;5.00;;;27.00;52.40;27.40;100865.00;;;;5011505;28;20171;-49
2023/06/22 06:14:06;;;;;;;5.40;5.00;;;27.10;52.80;27.40;100860.00;;;;5011371;28;20825;-49
2023/06/22 06:16:32;;;;;;;5.90;5.47;;;27.10;52.90;27.40;100868.00;;;;5003831;28;20200;-48
2023/06/22 06:18:58;;;;;;;5.85;5.35;;;27.10;53.40;27.40;100863.00;;;;5013998;28;20560;-51
2023/06/22 06:21:24;;;;;;;5.15;4.75;;;27.10;53.30;27.40;100875.00;;;;5032330;28;20175;-50
2023/06/22 06:23:50;;;;;;;5.40;4.97;;;27.10;53.60;27.40;100868.00;;;;4995485;28;20762;-51
2023/06/22 06:26:16;;;;;;;5.75;5.25;;;27.10;53.70;27.40;100863.00;;;;4994158;28;20195;-48
2023/06/22 06:28:43;;;;;;;5.55;5.15;;;27.10;53.90;27.40;100863.00;;;;5027948;28;20190;-50
2023/06/22 06:31:09;;;;;;;5.60;5.20;;;27.10;54.20;27.40;100856.00;;;;5014175;28;20186;-49
2023/06/22 06:33:36;;;;;;;6.28;5.78;;;27.10;54.10;27.40;100866.00;;;;5017217;28;20195;-49
2023/06/22 06:36:03;;;;;;;5.68;5.28;;;27.10;54.40;27.40;100870.00;;;;4990863;28;20449;-51
2023/06/22 06:38:30;;;;;;;5.68;5.15;;;27.10;54.50;27.40;100877.00;;;;5033501;28;20218;-50
2023/06/22 06:40:57;;;;;;;5.90;5.40;;;27.00;54.50;27.40;100860.00;;;;4979765;28;20262;-50
2023/06/22 06:43:24;;;;;;;6.75;6.07;;;27.10;54.80;27.40;100879.00;;;;5012322;28;20199;-49
2023/06/22 06:45:52;;;;;;;6.60;6.10;;;27.10;54.70;27.40;100877.00;;;;4995032;28;20199;-50
2023/06/22 06:48:19;;;;;;;6.05;5.55;;;27.10;55.60;27.40;100869.00;;;;4999711;28;20187;-49
2023/06/22 06:50:45;;;;;;;6.13;5.63;;;27.10;55.80;27.40;100878.00;;;;4999287;28;20183;-48
2023/06/22 06:53:10;;;;;;;7.47;6.05;;;27.10;55.90;27.40;100873.00;;;;5033534;28;20175;-52
2023/06/22 06:55:36;;;;;;;6.55;6.05;;;27.10;55.60;27.40;100867.00;;;;5015051;28;20171;-50
2023/06/22 06:58:07;;;;;;;6.47;5.97;;;27.10;55.80;27.40;100882.00;;;;5031793;28;20199;-49
2023/06/22 07:00:33;;;;;;;6.75;6.15;;;27.10;56.30;27.40;100874.00;;;;5031809;28;20225;-49
2023/06/22 07:02:58;;;;;;;7.15;6.55;;;27.10;57.20;27.40;100874.00;;;;5031688;28;20199;-50
2023/06/22 07:05:24;;;;;;;6.97;6.20;;;27.10;57.10;27.40;100862.00;;;;5032115;28;20599;-49
2023/06/22 07:07:50;;;;;;;6.40;5.80;;;27.10;57.60;27.40;100872.00;;;;5031498;28;20187;-47
2023/06/22 07:10:16;;;;;;;6.10;5.53;;;27.10;57.80;27.40;100860.00;;;;5014455;28;20198;-48
2023/06/22 07:12:41;;;;;;;7.20;6.50;;;27.10;57.80;27.40;100871.00;;;;4998619;28;20306;-48
2023/06/22 07:15:09;;;;;;;6.50;5.90;;;27.10;58.40;27.40;100870.00;;;;4997297;28;20178;-49
2023/06/22 07:17:35;;;;;;;6.25;5.75;;;27.10;57.80;27.40;100860.00;;;;5014736;28;20222;-49
2023/06/22 07:20:03;;;;;;;6.80;5.90;;;27.10;57.80;27.40;100856.00;;;;5014676;28;20194;-49
2023/06/22 07:22:29;;;;;;;6.35;5.75;;;27.10;57.70;27.40;100836.00;;;;5017429;28;20187;-50
2023/06/22 07:24:55;;;;;;;6.65;6.05;;;27.10;57.50;27.40;100833.00;;;;5030886;28;20174;-49
2023/06/22 07:27:21;;;;;;;6.32;5.82;;;27.10;57.30;27.40;100821.00;;;;4982514;28;20195;-49
2023/06/22 07:29:46;;;;;;;6.47;5.88;;;27.10;57.60;27.40;100822.00;;;;5013406;28;20229;-50
2023/06/22 07:32:12;;;;;;;6.75;6.25;;;27.10;57.70;27.40;100835.00;;;;5012728;28;20185;-49
2023/06/22 07:34:38;;;;;;;6.47;5.90;;;27.10;57.80;27.40;100824.00;;;;4997382;28;20241;-49
2023/06/22 07:37:04;;;;;;;6.22;5.70;;;27.10;57.80;27.20;100814.00;;;;5012692;28;20194;-49
2023/06/22 07:39:30;;;;;;;6.78;6.18;;;27.00;57.90;27.40;100835.00;;;;4998137;28;20175;-50
2023/06/22 07:41:56;;;;;;;6.57;6.05;;;27.10;57.80;27.40;100809.00;;;;5014424;28;20232;-49
2023/06/22 07:44:22;;;;;;;6.55;6.05;;;27.00;57.70;27.40;100806.00;;;;4979641;28;20206;-49
2023/06/22 07:46:47;;;;;;;6.50;5.90;;;27.10;58.00;27.40;100807.00;;;;4996894;28;20178;-49
2023/06/22 07:49:13;;;;;;;6.68;6.00;;;27.10;58.10;27.40;100801.00;;;;5031217;28;20171;-51
2023/06/22 07:51:39;;;;;;;6.88;6.28;;;27.10;58.20;27.40;100797.00;;;;4992641;28;20190;-51
2023/06/22 07:54:05;;;;;;;6.40;5.90;;;27.10;58.40;27.40;100783.00;;;;5045625;28;20700;-48
2023/06/22 07:56:31;;;;;;;6.82;6.30;;;27.10;58.50;27.40;100794.00;;;;5045590;28;20253;-49
2023/06/22 07:58:58;;;;;;;6.60;6.10;;;27.10;59.20;27.40;100782.00;;;;5012885;28;20198;-48
2023/06/22 08:01:24;;;;;;;6.22;5.82;;;27.10;59.30;27.40;100781.00;;;;4997421;28;20171;-47
2023/06/22 08:03:51;;;;;;;6.93;6.32;;;27.10;59.40;27.40;100782.00;;;;4996706;28;20214;-47
2023/06/22 08:06:16;;;;;;;7.00;6.40;;;27.10;59.20;27.40;100771.00;;;;5032767;28;20182;-47
2023/06/22 08:08:42;;;;;;;6.47;5.97;;;27.10;59.30;27.40;100790.00;;;;5019227;28;20187;-47
2023/06/22 08:11:09;;;;;;;6.50;6.00;;;27.00;58.70;27.40;100783.00;;;;5013839;28;20193;-48
2023/06/22 08:13:34;;;;;;;6.00;5.50;;;27.00;58.40;27.40;100776.00;;;;5031627;28;20171;-47
2023/06/22 08:16:00;;;;;;;6.45;5.97;;;27.00;57.80;27.40;100777.00;;;;5031074;28;20183;-48
2023/06/22 08:18:26;;;;;;;6.90;6.30;;;27.00;57.70;27.40;100779.00;;;;5031828;28;20187;-47
2023/06/22 08:20:52;;;;;;;6.90;6.30;;;27.00;58.20;27.40;100773.00;;;;5030427;28;20167;-47
2023/06/22 08:23:18;;;;;;;6.53;6.03;;;27.00;58.30;27.40;100770.00;;;;5030768;28;20245;-47
2023/06/22 08:25:44;;;;;;;6.25;5.72;;;27.00;58.40;27.40;100758.00;;;;5029375;28;20225;-46
2023/06/22 08:28:10;;;;;;;7.00;6.50;;;26.90;58.50;27.30;100756.00;;;;5028646;28;20210;-48
2023/06/22 08:30:35;;;;;;;6.97;6.38;;;27.00;58.40;27.30;100747.00;;;;5029332;28;20171;-48
2023/06/22 08:33:01;;;;;;;6.35;5.80;;;27.00;58.40;27.30;100742.00;;;;5030322;28;20171;-49
2023/06/22 08:35:27;;;;;;;6.63;6.03;;;27.00;58.40;27.30;100732.00;;;;5030936;28;20245;-48
2023/06/22 08:37:56;;;;;;;7.47;6.68;;;27.00;58.20;27.30;100726.00;;;;5054017;28;20191;-47
2023/06/22 08:40:22;;;;;;;6.85;6.30;;;27.00;58.30;27.30;100728.00;;;;5038003;28;20189;-48
2023/06/22 08:42:48;;;;;;;6.38;5.88;;;26.90;58.10;27.30;100722.00;;;;5031020;28;20194;-48
2023/06/22 08:45:14;;;;;;;6.50;6.00;;;27.00;58.00;27.30;100726.00;;;;5028919;28;20254;-47
2023/06/22 08:47:41;;;;;;;6.78;6.18;;;26.90;58.10;27.30;100723.00;;;;5030611;28;20561;-48
2023/06/22 08:50:10;;;;;;;6.28;5.78;;;26.90;58.20;27.40;100719.00;;;;5028859;28;20175;-50
2023/06/22 08:52:37;;;;;;;6.72;6.10;;;27.00;58.50;27.40;100715.00;;;;5045767;28;20197;-47
2023/06/22 08:55:03;;;;;;;6.03;5.63;;;26.90;58.70;27.40;100722.00;;;;5045218;28;20178;-47
2023/06/22 08:57:30;;;;;;;6.60;6.00;;;27.00;58.50;27.50;100721.00;;;;5030840;28;20253;-48
2023/06/22 08:59:58;;;;;;;6.57;5.95;;;27.00;58.40;27.50;100712.00;;;;5030613;28;20277;-48
2023/06/22 09:02:25;;;;;;;7.30;6.15;;;27.00;58.50;27.50;100709.00;;;;5030587;28;20241;-49
2023/06/22 09:04:55;;;;;;;6.90;6.18;;;27.10;58.30;27.60;100696.00;;;;5029194;28;20691;-48
2023/06/22 09:07:25;;;;;;;6.07;5.53;;;27.10;58.30;27.60;100680.00;;;;5030123;28;20238;-48
2023/06/22 09:09:51;;;;;;;6.13;5.53;;;27.10;58.10;27.60;100680.00;;;;5029009;28;20201;-48
2023/06/22 09:12:19;;;;;;;6.25;5.75;;;27.20;58.20;27.70;100674.00;;;;5009463;28;20180;-47
2023/06/22 09:14:46;;;;;;;6.75;6.15;;;27.20;58.00;27.70;100671.00;;;;5009103;28;20303;-47
2023/06/22 09:17:13;;;;;;;6.50;6.00;;;27.20;58.10;27.70;100667.00;;;;5009791;28;20234;-48
2023/06/22 09:19:38;;;;;;;6.55;5.95;;;27.20;57.80;27.70;100658.00;;;;5009598;28;20202;-48
2023/06/22 09:22:06;;;;;;;6.22;5.72;;;27.20;57.60;27.80;100658.00;;;;5008829;28;20666;-47
2023/06/22 09:24:33;;;;;;;6.03;5.53;;;27.20;57.60;27.80;100667.00;;;;5016760;28;20281;-47
2023/06/22 09:26:59;;;;;;;6.70;6.10;;;27.30;57.60;27.90;100666.00;;;;5027668;28;20233;-50
2023/06/22 09:29:25;;;;;;;6.50;6.00;;;27.30;57.80;27.90;100667.00;;;;5028327;28;20179;-49
2023/06/22 09:31:53;;;;;;;6.68;6.18;;;27.30;57.80;27.90;100661.00;;;;5029348;28;20176;-49
2023/06/22 09:34:20;;;;;;;6.43;5.93;;;27.30;57.80;27.90;100656.00;;;;5028434;28;20262;-48
2023/06/22 09:36:46;;;;;;;6.25;5.75;;;27.40;57.80;27.90;100655.00;;;;5026252;28;20179;-48
2023/06/22 09:39:12;;;;;;;6.53;6.00;;;27.40;57.50;27.90;100647.00;;;;5023370;28;20182;-48
2023/06/22 09:41:38;;;;;;;6.90;6.20;;;27.40;57.40;27.90;100640.00;;;;5009612;28;20534;-47
2023/06/22 09:44:04;;;;;;;6.82;6.32;;;27.40;57.50;28.00;100628.00;;;;5008744;28;20293;-48
2023/06/22 09:46:30;;;;;;;6.47;5.97;;;27.40;57.70;28.00;100633.00;;;;5025893;28;20171;-47
2023/06/22 09:48:56;;;;;;;7.15;6.60;;;27.50;58.70;28.00;100640.00;;;;5028646;28;20603;-49
2023/06/22 09:51:23;;;;;;;7.20;6.70;;;27.50;58.20;28.00;100637.00;;;;5030037;28;20225;-47
2023/06/22 09:53:50;;;;;;;7.05;6.55;;;27.50;58.70;28.00;100637.00;;;;5029511;28;20163;-47
2023/06/22 09:56:16;;;;;;;6.80;6.30;;;27.50;58.00;28.00;100632.00;;;;5030099;28;20250;-47
2023/06/22 09:58:43;;;;;;;6.82;6.22;;;27.50;57.90;28.00;100625.00;;;;5030075;28;20286;-49
2023/06/22 10:01:10;;;;;;;7.00;6.50;;;27.50;57.90;28.10;100637.00;;;;5028529;28;20190;-48
2023/06/22 10:03:36;;;;;;;6.47;5.97;;;27.60;58.40;28.10;100633.00;;;;5028488;28;20233;-49
2023/06/22 10:06:03;;;;;;;7.13;6.53;;;27.60;58.30;28.10;100636.00;;;;5029036;28;20178;-48
2023/06/22 10:08:29;;;;;;;6.88;6.38;;;27.60;58.20;28.10;100634.00;;;;5029179;28;20281;-47
2023/06/22 10:10:54;;;;;;;6.82;6.32;;;27.60;58.30;28.10;100637.00;;;;5028995;28;20246;-48
2023/06/22 10:13:20;;;;;;;7.30;6.65;;;27.60;58.40;28.10;100626.00;;;;5027603;28;20179;-47
2023/06/22 10:15:51;;;;;;;7.35;6.70;;;27.60;58.40;28.10;100626.00;;;;5028264;28;20179;-46
2023/06/22 10:18:20;;;;;;;6.93;6.43;;;27.70;58.20;28.10;100624.00;;;;5027353;28;20205;-47
2023/06/22 10:20:47;;;;;;;6.68;6.18;;;27.70;58.30;28.20;100636.00;;;;5029808;28;20266;-47
2023/06/22 10:23:13;;;;;;;6.70;6.20;;;27.70;58.20;28.20;100637.00;;;;5033014;28;20194;-48
2023/06/22 10:25:39;;;;;;;6.57;6.07;;;27.70;58.10;28.20;100651.00;;;;5031743;28;20175;-48
2023/06/22 10:28:05;;;;;;;6.82;6.28;;;27.70;58.10;28.20;100655.00;;;;5032284;28;20276;-52
2023/06/22 10:30:31;;;;;;;6.45;5.95;;;27.70;58.00;28.30;100668.00;;;;5031844;28;20167;-52
2023/06/22 10:32:57;;;;;;;6.70;6.10;;;27.70;58.00;28.30;100684.00;;;;5032602;28;20202;-52
2023/06/22 10:35:23;;;;;;;6.35;5.85;;;27.70;58.20;28.30;100693.00;;;;5031485;28;20313;-53
2023/06/22 10:37:50;;;;;;;6.18;5.65;;;27.70;58.10;28.40;100710.00;;;;5015210;28;20605;-52
2023/06/22 10:40:17;;;;;;;6.38;5.85;;;27.70;58.00;28.40;100709.00;;;;5031116;28;20599;-52
2023/06/22 10:42:43;;;;;;;5.93;5.50;;;27.80;58.10;28.40;100696.00;;;;5015831;28;20199;-53
2023/06/22 10:45:09;;;;;;;6.53;6.03;;;27.80;58.00;28.40;100708.00;;;;4997068;28;20183;-53
2023/06/22 10:47:35;;;;;;;6.10;5.60;;;27.70;57.80;28.40;100713.00;;;;4977662;28;20636;-51